الصفحة الرئيسية
METAR-TAF:

METAR-TAF

مطار :

مطار الشلف الدولي

الشلف, الجزائر

دائرة عرض: 36-13N, خط طول: 001-20E, ارتفاع: 143 متر

مراقبة الطقس الحالي

تاريخ ووقت الإصدار 27 دقيقة قبل الساعة 03:00UTC
ريح 8 عقدة من الغرب
درجة الحرارة 18°درجة مئوية
الرطوبة 77%
ضغط 1012 hPa
الرؤية 10 كم أو أكثر
الغيوم لا تقل 1500 م ولا وجود لمزنة ركامية السحاب الأسود

METAR: DAOI 300300Z 28008KT CAVOK 18/14 Q1012

زمن: 04:27 (03:27 UTC)

توقعات

تاريخ ووقت الإصدار 4ساعات و 27 دقيقة قبل الساعة 23:00UTC
التوقعات صالحة من30 الساعة 00 UTC إلى 30 الساعة 24 UTC
ريح 2 عقدةمن اتجاهات متغيرة
الرؤية 10 كم أو أكثر
الغيوم لا تقل 1500 م ولا وجود لمزنة ركامية السحاب الأسود
أصبح
من 30 الساعة 03 UTC إلى 30 الساعة 06 UTC
الرؤية 10 كم أو أكثر
غيوم متفرقة على ارتفاع 2600 قدم
أصبح
من 30 الساعة 12 UTC إلى 30 الساعة 15 UTC
ريح 10 عقدة من الشمال/الشمال الشرقي

TAF: DAOI 292300Z 3000/3024 VRB02KT CAVOK BECMG 3003/3006 9999 SCT026 BECMG 3012/3015 02010KT

أرصاد الطقس والتوقعات من أكثر من 4000 مطار (تقارير الطقس للمطار METAR والتنبؤ بالطقس بالمطارTAF).

المحطات المتاحة هي النقط الصفراء والحمراء على الخريطة.

حرك المؤشر فوق النقطة لمعرفة اسم المحطة.

ثم انقر لمعرفة أرصاد وتوقعات الطقس.

لتغيير الخارطة: اضغط على الأزرار الخضراء مع رمز الصليب الأسود للتكبير. على الزر الأخضر مع شرطة للتصغير، أو على الأسهم الخضراء للخرائط المجاورة.


METAR-TAF: